createdAt,value
2018-07-13T00:01:43.172Z,15.87
2018-07-13T00:04:23.656Z,12.67
2018-07-13T00:07:04.254Z,11.37
2018-07-13T00:09:45.703Z,8.37
2018-07-13T00:12:26.539Z,10.53
2018-07-13T00:15:09.467Z,14.77
2018-07-13T00:17:50.294Z,12.37
2018-07-13T00:20:31.039Z,10.00
2018-07-13T00:23:12.248Z,11.93
2018-07-13T00:25:53.987Z,10.33
2018-07-13T00:28:34.816Z,11.17
2018-07-13T00:31:15.591Z,8.53
2018-07-13T00:33:57.553Z,11.47
2018-07-13T00:36:38.328Z,9.07
2018-07-13T00:39:18.739Z,10.87
2018-07-13T00:41:59.996Z,9.70
2018-07-13T00:44:41.087Z,10.30
2018-07-13T00:47:21.691Z,9.77
2018-07-13T00:50:02.875Z,11.77
2018-07-13T00:52:43.265Z,7.70
2018-07-13T00:55:23.773Z,8.00
2018-07-13T00:58:04.814Z,10.97
2018-07-13T01:00:45.296Z,7.90
2018-07-13T01:03:26.047Z,11.00
2018-07-13T01:06:06.533Z,12.83
2018-07-13T01:08:46.708Z,8.00
2018-07-13T01:11:27.074Z,9.80
2018-07-13T01:14:07.932Z,12.47
2018-07-13T01:16:48.736Z,9.10
2018-07-13T01:19:29.309Z,9.07
2018-07-13T01:22:09.882Z,13.13
2018-07-13T01:24:50.956Z,11.77
2018-07-13T01:27:31.425Z,9.40
2018-07-13T01:30:12.076Z,11.43
2018-07-13T01:32:53.057Z,8.33
2018-07-13T01:35:34.064Z,10.73
2018-07-13T01:38:14.992Z,12.20
2018-07-13T01:40:55.852Z,11.13
2018-07-13T01:43:37.031Z,10.27
2018-07-13T01:46:17.944Z,10.43
2018-07-13T01:48:58.239Z,11.67
2018-07-13T01:51:38.641Z,8.87
2018-07-13T01:54:19.057Z,8.43
2018-07-13T01:56:59.749Z,10.13
2018-07-13T01:59:40.146Z,10.20
2018-07-13T02:02:20.640Z,9.83
2018-07-13T02:05:00.980Z,9.60
2018-07-13T02:07:41.450Z,11.00
2018-07-13T02:10:21.836Z,11.83
2018-07-13T02:13:02.343Z,12.93
2018-07-13T02:15:42.821Z,8.13
2018-07-13T02:18:23.417Z,10.60
2018-07-13T02:21:04.462Z,12.20
2018-07-13T02:23:45.345Z,10.27
2018-07-13T02:26:25.931Z,11.37
2018-07-13T02:29:07.399Z,10.03
2018-07-13T02:31:48.065Z,8.90
2018-07-13T02:34:28.525Z,12.60
2018-07-13T02:37:09.806Z,10.90
2018-07-13T02:39:50.690Z,11.10
2018-07-13T02:42:31.549Z,11.97
2018-07-13T02:45:12.504Z,10.97
2018-07-13T02:47:53.271Z,9.37
2018-07-13T02:50:33.813Z,13.47
2018-07-13T02:53:14.351Z,12.50
2018-07-13T02:55:55.449Z,9.93
2018-07-13T02:58:36.217Z,12.97
2018-07-13T03:01:16.761Z,13.43
2018-07-13T03:03:57.476Z,12.73
2018-07-13T03:06:38.679Z,12.40
2018-07-13T03:09:19.570Z,13.67
2018-07-13T03:12:00.369Z,9.93
2018-07-13T03:14:40.780Z,9.97
2018-07-13T03:17:21.879Z,10.90
2018-07-13T03:20:02.745Z,11.13
2018-07-13T03:22:43.523Z,8.93
2018-07-13T03:25:24.217Z,10.27
2018-07-13T03:28:05.268Z,11.43
2018-07-13T03:30:46.362Z,11.17
2018-07-13T03:33:26.750Z,12.37
2018-07-13T03:36:07.126Z,11.33
2018-07-13T03:38:48.024Z,12.13
2018-07-13T03:41:28.419Z,9.33
2018-07-13T03:44:09.223Z,9.70
2018-07-13T03:46:49.752Z,12.10
2018-07-13T03:49:30.563Z,8.73
2018-07-13T03:52:11.370Z,9.37
2018-07-13T03:54:52.046Z,12.30
2018-07-13T03:57:32.913Z,11.70
2018-07-13T04:00:13.586Z,13.00
2018-07-13T04:02:54.475Z,9.97
2018-07-13T04:05:35.025Z,9.10
2018-07-13T04:08:16.035Z,9.23
2018-07-13T04:10:56.649Z,9.10
2018-07-13T04:13:38.016Z,10.10
2018-07-13T04:16:18.565Z,10.10
2018-07-13T04:18:59.386Z,11.67
2018-07-13T04:21:39.692Z,10.37
2018-07-13T04:24:20.440Z,10.57
2018-07-13T04:27:01.532Z,10.60
2018-07-13T04:29:42.462Z,8.50
2018-07-13T04:32:22.989Z,10.27
2018-07-13T04:35:03.799Z,11.30
2018-07-13T04:37:44.980Z,13.47
2018-07-13T04:40:26.253Z,13.77
2018-07-13T04:43:07.089Z,11.50
2018-07-13T04:45:47.622Z,14.30
2018-07-13T04:48:28.496Z,14.53
2018-07-13T04:51:09.057Z,11.13
2018-07-13T04:53:49.448Z,8.70
2018-07-13T04:56:30.360Z,11.73
2018-07-13T04:59:10.708Z,10.93
2018-07-13T05:01:51.167Z,15.07
2018-07-13T05:04:31.901Z,11.67
2018-07-13T05:07:12.504Z,11.50
2018-07-13T05:09:53.331Z,10.33
2018-07-13T05:12:34.833Z,15.30
2018-07-13T05:15:15.621Z,11.87
2018-07-13T05:17:56.418Z,15.47
2018-07-13T05:20:36.945Z,11.30
2018-07-13T05:23:18.019Z,11.53
2018-07-13T05:25:58.866Z,11.07
2018-07-13T05:28:39.681Z,10.93
2018-07-13T05:31:20.056Z,10.57
2018-07-13T05:34:01.860Z,13.60
2018-07-13T05:36:42.661Z,13.37
2018-07-13T05:39:23.094Z,17.03
2018-07-13T05:42:03.756Z,11.43
2018-07-13T05:44:44.533Z,12.07
2018-07-13T05:47:24.922Z,13.13
2018-07-13T05:50:05.866Z,13.60
2018-07-13T05:52:46.333Z,10.60
2018-07-13T05:55:26.687Z,9.60
2018-07-13T05:58:07.256Z,12.60
2018-07-13T06:00:48.938Z,10.20
2018-07-13T06:03:29.440Z,12.47
2018-07-13T06:06:10.011Z,13.53
2018-07-13T06:08:50.760Z,11.10
2018-07-13T06:11:31.663Z,9.90
2018-07-13T06:14:12.488Z,12.33
2018-07-13T06:16:53.022Z,11.70
2018-07-13T06:19:33.444Z,10.20
2018-07-13T06:22:14.116Z,11.77
2018-07-13T06:24:54.612Z,13.13
2018-07-13T06:27:36.247Z,11.97
2018-07-13T06:30:16.746Z,10.97
2018-07-13T06:32:57.676Z,11.57
2018-07-13T06:35:38.782Z,13.43
2018-07-13T06:38:19.325Z,15.33
2018-07-13T06:40:59.964Z,14.27
2018-07-13T06:43:40.305Z,13.60
2018-07-13T06:46:21.097Z,10.53
2018-07-13T06:49:02.286Z,10.43
2018-07-13T06:51:42.761Z,10.90
2018-07-13T06:54:23.291Z,11.83
2018-07-13T06:57:03.617Z,11.73
2018-07-13T06:59:44.383Z,9.60
2018-07-13T07:02:40.124Z,9.80
2018-07-13T07:06:23.387Z,10.13
2018-07-13T07:09:05.501Z,11.20
2018-07-13T07:12:02.994Z,9.07
2018-07-13T07:14:43.735Z,9.40
2018-07-13T07:17:24.871Z,11.50
2018-07-13T07:20:06.151Z,8.87
2018-07-13T07:22:47.596Z,9.83
2018-07-13T07:25:28.255Z,11.13
2018-07-13T07:28:08.900Z,8.93
2018-07-13T07:30:49.814Z,12.07
2018-07-13T07:33:31.859Z,16.00
2018-07-13T07:36:12.420Z,11.20
2018-07-13T07:38:53.284Z,12.80
2018-07-13T07:41:33.797Z,13.37
2018-07-13T07:44:14.576Z,12.40
2018-07-13T07:46:55.063Z,11.67
2018-07-13T07:49:35.704Z,10.33
2018-07-13T07:52:16.233Z,8.53
2018-07-13T07:54:56.760Z,10.27
2018-07-13T07:57:37.951Z,8.10
2018-07-13T08:00:19.376Z,11.93
2018-07-13T08:03:01.578Z,9.27
2018-07-13T08:05:42.264Z,8.20
2018-07-13T08:08:23.096Z,7.20
2018-07-13T08:11:04.512Z,11.23
2018-07-13T08:13:45.750Z,9.80
2018-07-13T08:16:26.280Z,7.80
2018-07-13T08:19:07.159Z,13.10
2018-07-13T08:21:48.330Z,9.97
2018-07-13T08:24:29.274Z,6.87
2018-07-13T08:27:15.488Z,7.87
2018-07-13T08:29:57.457Z,5.90
2018-07-13T08:32:38.017Z,6.90
2018-07-13T08:35:18.858Z,6.43
2018-07-13T08:38:01.381Z,5.73
2018-07-13T08:40:41.990Z,7.70
2018-07-13T08:43:22.539Z,8.90
2018-07-13T08:46:03.177Z,11.30
2018-07-13T08:48:43.593Z,8.67
2018-07-13T08:51:24.172Z,8.80
2018-07-13T08:54:04.863Z,6.17
2018-07-13T08:56:45.358Z,8.13
2018-07-13T08:59:25.923Z,6.43
2018-07-13T09:02:06.525Z,7.03
2018-07-13T09:04:46.994Z,6.77
2018-07-13T09:07:28.473Z,6.97
2018-07-13T09:10:10.910Z,6.27
2018-07-13T09:12:51.515Z,5.93
2018-07-13T09:15:32.232Z,11.20
2018-07-13T09:18:12.846Z,5.50
2018-07-13T09:20:53.519Z,5.73
2018-07-13T09:23:34.361Z,5.93
2018-07-13T09:26:14.792Z,6.47
2018-07-13T09:28:55.599Z,5.20
2018-07-13T09:31:36.729Z,5.87
2018-07-13T09:34:17.254Z,6.53
2018-07-13T09:36:58.196Z,7.07
2018-07-13T09:39:38.854Z,5.80
2018-07-13T09:42:19.486Z,6.23
2018-07-13T09:45:00.089Z,6.17
2018-07-13T09:47:41.164Z,5.73
2018-07-13T09:50:21.557Z,7.37
2018-07-13T09:53:02.118Z,6.63
2018-07-13T09:55:42.650Z,9.77
2018-07-13T09:58:33.211Z,5.40
2018-07-13T10:01:21.450Z,6.83
2018-07-13T10:04:02.358Z,7.83
2018-07-13T10:06:45.801Z,8.60
2018-07-13T10:09:26.181Z,4.60
2018-07-13T10:12:08.176Z,8.77
2018-07-13T10:14:48.802Z,5.03
2018-07-13T10:17:29.208Z,5.23
2018-07-13T10:20:10.084Z,5.37
2018-07-13T10:22:50.570Z,4.63
2018-07-13T10:25:31.817Z,6.07
2018-07-13T10:28:12.642Z,4.43
2018-07-13T10:30:54.230Z,6.13
2018-07-13T10:33:36.774Z,4.80
2018-07-13T10:36:20.564Z,6.30
2018-07-13T10:39:01.340Z,7.33
2018-07-13T10:41:41.755Z,4.20
2018-07-13T10:44:22.456Z,5.30
2018-07-13T10:47:03.010Z,4.13
2018-07-13T10:49:44.042Z,4.00
2018-07-13T10:52:24.448Z,4.43
2018-07-13T10:55:04.846Z,4.40
2018-07-13T10:57:45.761Z,5.43
2018-07-13T11:00:26.275Z,4.03
2018-07-13T11:03:07.229Z,5.83
2018-07-13T11:05:48.177Z,4.50
2018-07-13T11:08:28.625Z,5.00
2018-07-13T11:11:09.793Z,5.70
2018-07-13T11:13:50.786Z,4.00
2018-07-13T11:16:31.499Z,4.47
2018-07-13T11:19:12.071Z,4.33
2018-07-13T11:21:53.198Z,4.83
2018-07-13T11:24:34.687Z,6.30
2018-07-13T11:27:15.626Z,5.33
2018-07-13T11:29:56.500Z,4.30
2018-07-13T11:32:37.206Z,5.73
2018-07-13T11:35:17.601Z,3.67
2018-07-13T11:37:58.268Z,4.80
2018-07-13T11:40:39.037Z,4.23
2018-07-13T11:43:19.949Z,3.57
2018-07-13T11:46:00.281Z,3.90
2018-07-13T11:48:40.739Z,3.50
2018-07-13T11:51:21.747Z,3.50
2018-07-13T11:54:02.849Z,7.07
2018-07-13T11:56:43.401Z,3.93
2018-07-13T11:59:24.267Z,4.93
2018-07-13T12:02:05.175Z,4.37
2018-07-13T12:04:45.294Z,3.37
2018-07-13T12:07:26.456Z,3.03
2018-07-13T12:10:07.368Z,5.07
2018-07-13T12:12:48.325Z,5.40
2018-07-13T12:15:29.201Z,3.57
2018-07-13T12:18:10.688Z,3.23
2018-07-13T12:20:51.364Z,4.33
2018-07-13T12:23:32.320Z,5.03
2018-07-13T12:26:12.692Z,5.33
2018-07-13T12:28:54.023Z,3.30
2018-07-13T12:31:34.793Z,3.40
2018-07-13T12:34:15.872Z,5.40
2018-07-13T12:36:56.885Z,3.60
2018-07-13T12:39:37.765Z,4.20
2018-07-13T12:42:18.808Z,6.40
2018-07-13T12:44:59.705Z,7.40
2018-07-13T12:47:40.144Z,3.33
2018-07-13T12:50:20.716Z,3.20
2018-07-13T12:53:01.400Z,6.53
2018-07-13T12:55:42.865Z,3.97
2018-07-13T12:58:23.508Z,7.90
2018-07-13T13:01:04.271Z,4.90
2018-07-13T13:03:46.965Z,4.23
2018-07-13T13:06:27.783Z,3.67
2018-07-13T13:09:09.376Z,3.00
2018-07-13T13:11:50.902Z,3.23
2018-07-13T13:14:31.675Z,3.67
2018-07-13T13:17:12.501Z,3.30
2018-07-13T13:19:52.987Z,4.70
2018-07-13T13:22:33.554Z,3.80
2018-07-13T13:25:14.745Z,5.33
2018-07-13T13:27:55.948Z,4.83
2018-07-13T13:30:38.014Z,3.97
2018-07-13T13:33:18.824Z,3.87
2018-07-13T13:35:59.411Z,3.70
2018-07-13T13:38:39.893Z,4.10
2018-07-13T13:41:20.321Z,4.30
2018-07-13T13:44:00.720Z,6.13
2018-07-13T13:46:42.220Z,3.80
2018-07-13T13:49:22.812Z,5.07
2018-07-13T13:52:03.436Z,4.80
2018-07-13T13:54:44.068Z,10.03
2018-07-13T13:57:25.261Z,4.43
2018-07-13T14:00:06.049Z,6.40
2018-07-13T14:02:47.273Z,5.07
2018-07-13T14:05:28.138Z,5.30
2018-07-13T14:08:08.731Z,4.60
2018-07-13T14:10:49.851Z,5.47
2018-07-13T14:13:30.742Z,5.13
2018-07-13T14:16:12.832Z,5.20
2018-07-13T14:18:54.045Z,7.53
2018-07-13T14:21:34.869Z,5.07
2018-07-13T14:24:15.951Z,4.93
2018-07-13T14:26:57.031Z,5.07
2018-07-13T14:29:37.568Z,7.03
2018-07-13T14:32:20.687Z,4.93
2018-07-13T14:35:02.368Z,5.93
2018-07-13T14:37:43.418Z,6.70
2018-07-13T14:40:24.226Z,6.23
2018-07-13T14:43:04.936Z,8.17
2018-07-13T14:45:45.603Z,5.73
2018-07-13T14:48:25.952Z,6.30
2018-07-13T14:51:06.496Z,7.30
2018-07-13T14:53:47.626Z,5.27
2018-07-13T14:56:28.546Z,7.10
2018-07-13T14:59:09.777Z,5.87
2018-07-13T15:01:50.393Z,6.13
2018-07-13T15:04:32.744Z,5.97
2018-07-13T15:07:13.681Z,6.60
2018-07-13T15:09:54.727Z,6.27
2018-07-13T15:12:35.560Z,5.73
2018-07-13T15:15:16.204Z,5.87
2018-07-13T15:17:57.383Z,5.73
2018-07-13T15:20:38.396Z,7.57
2018-07-13T15:23:19.221Z,6.10
2018-07-13T15:26:00.261Z,6.17
2018-07-13T15:28:40.879Z,6.03
2018-07-13T15:31:21.421Z,7.73
2018-07-13T15:34:02.426Z,6.20
2018-07-13T15:36:44.632Z,7.23
2018-07-13T15:39:25.499Z,7.03
2018-07-13T15:42:05.875Z,6.70
2018-07-13T15:44:46.759Z,6.33
2018-07-13T15:47:27.582Z,6.80
2018-07-13T15:50:08.445Z,6.83
2018-07-13T15:52:49.362Z,6.17
2018-07-13T15:55:34.192Z,6.20
2018-07-13T15:58:14.701Z,5.63
2018-07-13T16:00:56.458Z,7.73
2018-07-13T16:03:38.134Z,8.10
2018-07-13T16:06:18.865Z,6.03
2018-07-13T16:08:59.459Z,9.57
2018-07-13T16:11:39.868Z,5.97
2018-07-13T16:14:20.513Z,5.60
2018-07-13T16:17:01.872Z,5.90
2018-07-13T16:19:42.253Z,5.83
2018-07-13T16:22:23.270Z,6.37
2018-07-13T16:25:03.702Z,6.20
2018-07-13T16:27:44.960Z,6.67
2018-07-13T16:30:25.865Z,6.20
2018-07-13T16:33:07.721Z,5.50
2018-07-13T16:35:48.605Z,6.47
2018-07-13T16:38:29.563Z,6.40
2018-07-13T16:41:10.609Z,7.13
2018-07-13T16:43:51.316Z,5.70
2018-07-13T16:46:31.796Z,5.50
2018-07-13T16:49:12.474Z,5.10
2018-07-13T16:51:53.039Z,5.47
2018-07-13T16:54:33.599Z,7.60
2018-07-13T16:57:14.390Z,5.27
2018-07-13T16:59:55.105Z,6.70
2018-07-13T17:02:35.668Z,5.53
2018-07-13T17:05:16.499Z,5.60
2018-07-13T17:07:56.885Z,9.07
2018-07-13T17:10:37.657Z,6.70
2018-07-13T17:13:18.139Z,5.23
2018-07-13T17:15:58.837Z,5.07
2018-07-13T17:18:39.649Z,6.67
2018-07-13T17:21:20.170Z,7.00
2018-07-13T17:24:01.048Z,6.17
2018-07-13T17:26:42.315Z,5.20
2018-07-13T17:29:23.207Z,5.70
2018-07-13T17:32:04.247Z,5.77
2018-07-13T17:34:44.770Z,6.47
2018-07-13T17:37:26.050Z,5.83
2018-07-13T17:40:12.009Z,5.97
2018-07-13T17:42:53.332Z,6.23
2018-07-13T17:45:33.926Z,5.30
2018-07-13T17:48:14.632Z,6.23
2018-07-13T17:50:55.525Z,5.13
2018-07-13T17:53:37.005Z,5.50
2018-07-13T17:56:18.109Z,5.33
2018-07-13T17:58:59.043Z,5.63
2018-07-13T18:01:40.785Z,5.20
2018-07-13T18:04:21.589Z,5.47
2018-07-13T18:07:02.958Z,7.23
2018-07-13T18:09:43.784Z,5.57
2018-07-13T18:12:24.626Z,6.83
2018-07-13T18:15:05.788Z,5.80
2018-07-13T18:17:46.606Z,6.60
2018-07-13T18:20:27.354Z,4.83
2018-07-13T18:23:08.849Z,6.93
2018-07-13T18:25:49.352Z,5.20
2018-07-13T18:28:30.138Z,6.43
2018-07-13T18:31:11.162Z,6.23
2018-07-13T18:33:51.871Z,4.67
2018-07-13T18:36:32.672Z,4.53
2018-07-13T18:39:14.020Z,5.03
2018-07-13T18:41:54.941Z,6.90
2018-07-13T18:44:37.246Z,6.47
2018-07-13T18:47:17.762Z,5.17
2018-07-13T18:49:58.278Z,5.80
2018-07-13T18:52:38.963Z,5.23
2018-07-13T18:55:19.437Z,5.83
2018-07-13T18:58:00.304Z,5.63
2018-07-13T19:00:41.301Z,5.87
2018-07-13T19:03:21.868Z,5.10
2018-07-13T19:06:02.550Z,7.40
2018-07-13T19:08:43.093Z,5.63
2018-07-13T19:11:24.150Z,5.67
2018-07-13T19:14:06.410Z,7.37
2018-07-13T19:16:47.208Z,6.20
2018-07-13T19:19:28.011Z,9.10
2018-07-13T19:22:08.893Z,6.97
2018-07-13T19:24:49.345Z,6.40
2018-07-13T19:27:30.381Z,7.67
2018-07-13T19:30:11.394Z,8.60
2018-07-13T19:32:53.622Z,7.67
2018-07-13T19:35:34.737Z,6.67
2018-07-13T19:38:15.488Z,7.10
2018-07-13T19:40:56.249Z,7.50
2018-07-13T19:43:37.014Z,6.93
2018-07-13T19:46:17.940Z,11.17
2018-07-13T19:48:58.518Z,7.70
2018-07-13T19:51:39.397Z,8.83
2018-07-13T19:54:20.296Z,7.33
2018-07-13T19:57:01.084Z,6.33
2018-07-13T19:59:46.608Z,6.43
2018-07-13T20:02:27.148Z,6.67
2018-07-13T20:05:08.238Z,10.47
2018-07-13T20:07:49.314Z,8.80
2018-07-13T20:10:30.202Z,7.00
2018-07-13T20:13:11.199Z,8.03
2018-07-13T20:15:52.546Z,7.00
2018-07-13T20:18:32.745Z,9.87
2018-07-13T20:21:13.445Z,8.97
2018-07-13T20:23:54.563Z,7.83
2018-07-13T20:26:35.851Z,7.30
2018-07-13T20:29:16.838Z,8.73
2018-07-13T20:31:57.546Z,8.43
2018-07-13T20:34:38.665Z,7.40
2018-07-13T20:37:19.622Z,7.00
2018-07-13T20:40:00.129Z,7.47
2018-07-13T20:42:40.704Z,6.93
2018-07-13T20:45:21.597Z,7.37
2018-07-13T20:48:02.348Z,8.27
2018-07-13T20:50:43.468Z,7.20
2018-07-13T20:53:24.324Z,6.27
2018-07-13T20:56:06.019Z,9.77
2018-07-13T20:58:46.464Z,7.37
2018-07-13T21:01:27.498Z,9.77
2018-07-13T21:04:08.616Z,8.10
2018-07-13T21:06:49.365Z,9.90
2018-07-13T21:09:29.900Z,8.67
2018-07-13T21:12:10.866Z,8.57
2018-07-13T21:14:51.451Z,9.47
2018-07-13T21:17:32.281Z,9.13
2018-07-13T21:20:14.139Z,7.53
2018-07-13T21:22:55.245Z,7.50
2018-07-13T21:25:35.995Z,10.00
2018-07-13T21:28:16.889Z,9.47
2018-07-13T21:30:57.899Z,9.40
2018-07-13T21:33:38.940Z,7.63
2018-07-13T21:36:19.402Z,8.77
2018-07-13T21:39:00.055Z,10.67
2018-07-13T21:41:41.021Z,16.47
2018-07-13T21:44:21.936Z,9.07
2018-07-13T21:47:02.625Z,10.80
2018-07-13T21:49:43.019Z,8.80
2018-07-13T21:52:23.602Z,9.70
2018-07-13T21:55:04.363Z,9.60
2018-07-13T21:57:45.049Z,10.67
2018-07-13T22:00:25.426Z,8.70
2018-07-13T22:03:06.160Z,10.27
2018-07-13T22:05:47.435Z,10.27
2018-07-13T22:08:28.245Z,11.90
2018-07-13T22:11:08.932Z,10.87
2018-07-13T22:13:50.293Z,10.77
2018-07-13T22:16:31.103Z,9.40
2018-07-13T22:19:12.010Z,9.57
2018-07-13T22:21:52.424Z,10.37
2018-07-13T22:24:33.196Z,9.83
2018-07-13T22:27:14.063Z,10.50
2018-07-13T22:29:54.874Z,9.73
2018-07-13T22:32:36.158Z,12.10
2018-07-13T22:35:17.081Z,9.87
2018-07-13T22:37:57.623Z,11.70
2018-07-13T22:40:38.471Z,17.30
2018-07-13T22:43:19.202Z,8.17
2018-07-13T22:45:59.980Z,8.77
2018-07-13T22:48:40.826Z,9.87
2018-07-13T22:51:22.558Z,12.17
2018-07-13T22:54:03.108Z,9.23
2018-07-13T22:56:44.153Z,10.20
2018-07-13T22:59:25.317Z,12.70
2018-07-13T23:02:05.877Z,9.43
2018-07-13T23:04:46.477Z,9.90
2018-07-13T23:07:27.000Z,10.63
2018-07-13T23:10:08.055Z,11.87
2018-07-13T23:12:49.216Z,9.43
2018-07-13T23:15:30.401Z,11.57
2018-07-13T23:18:12.505Z,10.50
2018-07-13T23:20:53.710Z,11.20
2018-07-13T23:23:34.545Z,10.50
2018-07-13T23:26:15.475Z,11.43
2018-07-13T23:28:56.339Z,10.47
2018-07-13T23:31:37.160Z,10.40
2018-07-13T23:34:18.003Z,10.67
2018-07-13T23:36:59.212Z,12.80
2018-07-13T23:39:39.629Z,9.87
2018-07-13T23:42:20.693Z,9.77
2018-07-13T23:45:01.221Z,11.63
2018-07-13T23:47:42.193Z,11.37
2018-07-13T23:50:22.908Z,10.33
2018-07-13T23:53:04.005Z,11.53
2018-07-13T23:55:44.601Z,10.30
2018-07-13T23:58:25.482Z,10.53
